aviador You're here:

CYOA Decoded Metar

EKATI (PWS) in NT, CANADA
Report Time2018-07-19 19:00:00
UTC Time2018-07-19 19:20:56
Flight Rules mvfr MVFR
Wind190° at 05 kt
W.Decomp.*RWY 20: 4.5 kt HW 2.2 kt LCW
W.Rank190° ranks 36
Current wind is below 190° avg. (8.3)
Visibility9999 m
Phenomena:N/A
Clouds:Broken 025 Hf
Broken 230 Hf
Expected CloudBase > 2,400 ft AGL from Temp-Dew spread
Ceiling2,500 ft
Temp13°C (ISA +1)
Dew Point07°C (67% RH)
AAT10.5°C
QNH1022 hPa
Density Alt1,503 ft
Elevation1,539 ft
Report Wrong Elevation
Raw Report
CYOA 191900Z 19005KT 15SM BKN025 BKN230 13/07 A3017=

Extra information for CYOA:More info

Metar Taf Metar & Taf Last 4 Metars F.Rules Stats Wind Profile Meteogram Temp Stats Airport Information Weather charts Add Link Nearby VenuesMetar ALERT Operation Metar Decoded Social comments